Time;durP1;ratioP1;P1;durP2;ratioP2;P2;SDS_P1;SDS_P2;PMS_P1;PMS_P2;Temp;Humidity;BMP_temperature;BMP_pressure;BME280_temperature;BME280_humidity;BME280_pressure;Samples;Min_cycle;Max_cycle;Signal;HPM_P1;HPM_P2
2021/12/08 00:00:15;;;;;;;26.60;13.65;;;;;;;-1.22;100.00;98794.82;1665545;85;20878;-72
2021/12/08 00:02:42;;;;;;;26.25;12.98;;;;;;;-1.23;100.00;98794.55;1664357;85;21763;-72
2021/12/08 00:05:11;;;;;;;25.80;14.10;;;;;;;-1.22;100.00;98804.25;1660016;85;21017;-72
2021/12/08 00:07:38;;;;;;;25.80;14.38;;;;;;;-1.22;100.00;98813.67;1666541;85;21072;-72
2021/12/08 00:10:27;;;;;;;24.10;12.65;;;;;;;-1.20;100.00;98815.58;1675471;85;20930;-70
2021/12/08 00:15:41;;;;;;;24.05;12.33;;;;;;;-1.20;100.00;98815.04;1674743;85;21098;-73
2021/12/08 00:18:11;;;;;;;25.72;13.45;;;;;;;-1.22;100.00;98815.02;1673589;84;21069;-72
2021/12/08 00:20:38;;;;;;;23.02;11.95;;;;;;;-1.22;100.00;98817.71;1662951;85;20965;-73
2021/12/08 00:23:06;;;;;;;20.60;11.00;;;;;;;-1.22;100.00;98806.94;1663352;85;20969;-72
2021/12/08 00:25:34;;;;;;;22.70;11.22;;;;;;;-1.23;100.00;98810.17;1657312;85;21081;-72
2021/12/08 00:28:00;;;;;;;20.32;11.53;;;;;;;-1.22;100.00;98804.25;1633101;86;21221;-72
2021/12/08 00:30:28;;;;;;;22.98;12.53;;;;;;;-1.21;100.00;98809.91;1638798;86;20941;-73
2021/12/08 00:32:55;;;;;;;21.05;10.55;;;;;;;-1.22;100.00;98810.45;1634908;86;21237;-72
2021/12/08 00:35:22;;;;;;;23.45;12.03;;;;;;;-1.22;100.00;98813.14;1637978;86;21597;-74
2021/12/08 00:37:49;;;;;;;23.62;13.00;;;;;;;-1.22;100.00;98815.02;1630070;86;21798;-73
2021/12/08 00:40:17;;;;;;;26.02;12.95;;;;;;;-1.22;100.00;98819.87;1640121;87;21863;-73
2021/12/08 00:42:45;;;;;;;21.23;11.22;;;;;;;-1.22;100.00;98825.80;1639097;87;20957;-73
2021/12/08 00:45:13;;;;;;;21.68;10.80;;;;;;;-1.20;100.00;98831.73;1630220;87;20997;-73
2021/12/08 00:47:39;;;;;;;26.17;12.33;;;;;;;-1.19;100.00;98827.44;1646928;85;21540;-74
2021/12/08 00:50:08;;;;;;;21.93;11.83;;;;;;;-1.17;100.00;98818.56;1617081;87;21452;-73
2021/12/08 00:52:35;;;;;;;21.52;12.65;;;;;;;-1.16;100.00;98820.73;1631823;87;21081;-73
2021/12/08 00:55:08;;;;;;;19.23;11.15;;;;;;;-1.17;100.00;98815.88;1623602;87;21127;-73
2021/12/08 00:57:34;;;;;;;19.32;10.72;;;;;;;-1.17;100.00;98819.91;1626560;87;21020;-73
2021/12/08 01:00:05;;;;;;;22.95;11.57;;;;;;;-1.17;100.00;98816.41;1622289;87;21029;-73
2021/12/08 01:02:32;;;;;;;21.40;11.08;;;;;;;-1.14;100.00;98823.95;1625522;86;21515;-73
2021/12/08 01:05:00;;;;;;;22.25;11.70;;;;;;;-1.12;100.00;98818.58;1614577;87;21983;-73
2021/12/08 01:07:28;;;;;;;22.40;11.88;;;;;;;-1.12;100.00;98821.27;1613208;87;21468;-73
2021/12/08 01:09:55;;;;;;;23.12;11.30;;;;;;;-1.10;100.00;98822.36;1633124;87;21460;-73
2021/12/08 01:12:21;;;;;;;21.75;11.68;;;;;;;-1.10;100.00;98814.28;1627653;87;21584;-72
2021/12/08 01:14:48;;;;;;;21.35;10.98;;;;;;;-1.08;100.00;98815.65;1621294;87;21583;-73
2021/12/08 01:17:14;;;;;;;20.23;12.05;;;;;;;-1.07;100.00;98817.27;1624765;87;21974;-73
2021/12/08 01:19:42;;;;;;;20.35;11.18;;;;;;;-1.05;100.00;98817.02;1607725;87;21016;-73
2021/12/08 01:22:08;;;;;;;22.45;11.63;;;;;;;-1.04;100.00;98817.30;1632020;87;21089;-73
2021/12/08 01:24:34;;;;;;;20.08;10.60;;;;;;;-1.04;100.00;98815.95;1615086;87;20932;-73
2021/12/08 01:27:01;;;;;;;20.02;11.30;;;;;;;-1.06;100.00;98818.08;1618817;86;21104;-73
2021/12/08 01:29:27;;;;;;;21.73;10.50;;;;;;;-1.10;100.00;98811.05;1605401;88;21038;-73
2021/12/08 01:31:54;;;;;;;20.92;10.70;;;;;;;-1.09;100.00;98813.22;1628819;87;20925;-72
2021/12/08 01:34:20;;;;;;;24.05;11.97;;;;;;;-1.11;100.00;98814.00;1624218;87;21033;-73
2021/12/08 01:36:47;;;;;;;22.58;12.28;;;;;;;-1.10;100.00;98806.20;1607700;88;21090;-73
2021/12/08 01:39:14;;;;;;;23.50;12.00;;;;;;;-1.09;100.00;98803.25;1615898;87;21084;-73
2021/12/08 01:41:40;;;;;;;25.15;12.63;;;;;;;-1.08;100.00;98801.37;1613305;87;21175;-72
2021/12/08 01:46:53;;;;;;;25.70;12.55;;;;;;;-1.11;100.00;98791.11;1624491;87;21097;-73
2021/12/08 01:49:20;;;;;;;25.10;12.15;;;;;;;-1.13;100.00;98788.67;1630905;85;21040;-73
2021/12/08 01:51:47;;;;;;;20.15;12.07;;;;;;;-1.14;100.00;98793.78;1612424;87;21189;-73
2021/12/08 01:54:14;;;;;;;22.58;11.08;;;;;;;-1.15;100.00;98792.16;1616765;87;20996;-72
2021/12/08 01:56:41;;;;;;;23.50;12.15;;;;;;;-1.12;100.00;98786.25;1614597;87;21161;-72
2021/12/08 01:59:09;;;;;;;21.25;11.35;;;;;;;-1.10;100.00;98785.47;1610784;87;21009;-70
2021/12/08 02:01:37;;;;;;;22.42;11.50;;;;;;;-1.08;100.00;98788.71;1614980;87;21605;-73
2021/12/08 02:04:05;;;;;;;22.98;11.97;;;;;;;-1.07;100.00;98788.17;1610149;87;21033;-72
2021/12/08 02:06:38;;;;;;;23.95;12.25;;;;;;;-1.08;100.00;98786.02;1608835;87;21973;-72
2021/12/08 02:09:09;;;;;;;22.00;11.73;;;;;;;-1.11;100.00;98789.77;1626419;87;21510;-72
2021/12/08 02:11:38;;;;;;;20.82;11.88;;;;;;;-1.11;100.00;98785.72;1617055;87;21534;-72
2021/12/08 02:14:05;;;;;;;22.65;11.33;;;;;;;-1.10;100.00;98795.42;1616824;87;21489;-72
2021/12/08 02:16:32;;;;;;;23.35;12.25;;;;;;;-1.11;100.00;98789.23;1629391;85;20949;-72
2021/12/08 02:18:59;;;;;;;26.70;12.65;;;;;;;-1.11;100.00;98789.77;1661395;86;21067;-72
2021/12/08 02:21:35;;;;;;;24.52;11.38;;;;;;;-1.11;100.00;98791.11;1652337;86;21564;-73
2021/12/08 02:24:07;;;;;;;29.60;13.40;;;;;;;-1.11;100.00;98795.96;1642225;86;20960;-72
2021/12/08 02:26:34;;;;;;;30.00;14.47;;;;;;;-1.10;100.00;98790.04;1643573;86;20993;-73
2021/12/08 02:29:03;;;;;;;24.52;12.23;;;;;;;-1.09;100.00;98787.63;1640208;86;21064;-73
2021/12/08 02:47:54;;;;;;;30.65;15.28;;;;;;;-1.10;100.00;98773.87;1608370;88;20922;-71
2021/12/08 02:50:34;;;;;;;29.20;15.03;;;;;;;-1.09;100.00;98780.89;1608322;89;21031;-72
2021/12/08 02:53:01;;;;;;;26.95;14.10;;;;;;;-1.11;100.00;98781.68;1606961;89;21130;-70
2021/12/08 02:55:28;;;;;;;28.73;14.75;;;;;;;-1.11;100.00;98770.91;1607938;87;20992;-72
2021/12/08 02:57:55;;;;;;;30.60;15.32;;;;;;;-1.13;100.00;98760.92;1617759;87;21124;-71
2021/12/08 03:00:25;;;;;;;27.55;14.53;;;;;;;-1.14;100.00;98772.77;1618801;88;21528;-72
2021/12/08 03:02:57;;;;;;;32.38;15.18;;;;;;;-1.14;100.00;98782.20;1611377;86;21004;-72
2021/12/08 03:05:24;;;;;;;32.08;16.48;;;;;;;-1.15;100.00;98775.19;1628773;87;22337;-73
2021/12/08 03:07:51;;;;;;;29.92;14.75;;;;;;;-1.15;100.00;98767.11;1646470;86;21014;-72
2021/12/08 03:10:20;;;;;;;36.77;16.37;;;;;;;-1.13;100.00;98772.52;1644001;86;21115;-72
2021/12/08 03:12:49;;;;;;;31.10;15.23;;;;;;;-1.12;100.00;98772.79;1640244;86;20962;-71
2021/12/08 03:15:15;;;;;;;36.05;13.62;;;;;;;-1.13;100.00;98768.47;1644583;86;20911;-71
2021/12/08 03:17:42;;;;;;;33.10;16.73;;;;;;;-1.15;100.00;98756.33;1646501;86;21082;-71
2021/12/08 03:20:14;;;;;;;34.48;16.42;;;;;;;-1.17;100.00;98766.58;1661806;86;20995;-70
2021/12/08 03:22:45;;;;;;;;;;;;;;;-1.22;100.00;98765.20;1644221;86;21112;-71
2021/12/08 03:25:13;;;;;;;35.15;15.95;;;;;;;-1.24;100.00;98770.84;1665968;85;20202;-71
2021/12/08 03:27:46;;;;;;;38.85;15.83;;;;;;;-1.26;100.00;98767.59;1658237;86;21617;-71
2021/12/08 03:30:15;;;;;;;32.98;17.05;;;;;;;-1.30;100.00;98769.71;1660888;86;21015;-71
2021/12/08 03:32:40;;;;;;;33.10;15.95;;;;;;;-1.32;100.00;98768.63;1639791;86;21060;-71
2021/12/08 03:35:10;;;;;;;31.45;15.35;;;;;;;-1.35;100.00;98765.09;1648804;86;21142;-71
2021/12/08 03:37:40;;;;;;;37.05;15.80;;;;;;;-1.37;100.00;98762.66;1653981;86;20923;-72
2021/12/08 03:40:14;;;;;;;35.00;16.73;;;;;;;-1.38;100.00;98755.66;1614988;86;21741;-72
2021/12/08 03:42:42;;;;;;;35.75;15.75;;;;;;;-1.38;100.00;98758.34;1622966;87;21014;-72
2021/12/08 03:45:16;;;;;;;35.48;17.52;;;;;;;-1.40;100.00;98747.55;1615871;87;21195;-72
2021/12/08 03:47:46;;;;;;;32.75;16.48;;;;;;;-1.43;100.00;98746.19;1648334;86;21135;-73
2021/12/08 03:50:16;;;;;;;42.30;19.30;;;;;;;-1.43;100.00;98748.06;1664911;85;21073;-72
2021/12/08 03:52:42;;;;;;;32.90;15.65;;;;;;;-1.42;100.00;98742.96;1663777;84;20921;-71
2021/12/08 03:55:13;;;;;;;33.83;16.97;;;;;;;-1.42;100.00;98741.08;1642703;86;38924;-70
2021/12/08 03:57:39;;;;;;;39.85;18.02;;;;;;;-1.41;100.00;98741.36;1635934;87;21012;-70
2021/12/08 04:00:11;;;;;;;32.88;15.88;;;;;;;-1.42;100.00;98742.42;1648497;87;21776;-70
2021/12/08 04:02:37;;;;;;;30.68;16.23;;;;;;;-1.41;100.00;98743.23;1642431;86;20910;-72
2021/12/08 04:05:05;;;;;;;39.92;17.55;;;;;;;-1.42;100.00;98747.00;1640136;87;21089;-71
2021/12/08 04:07:32;;;;;;;34.25;16.80;;;;;;;-1.38;100.00;98750.80;1635612;86;21060;-72
2021/12/08 04:09:59;;;;;;;37.90;15.45;;;;;;;-1.34;100.00;98748.69;1642849;86;21060;-71
2021/12/08 04:12:26;;;;;;;33.13;15.55;;;;;;;-1.31;100.00;98747.89;1639462;86;21177;-72
2021/12/08 04:14:57;;;;;;;34.95;16.10;;;;;;;-1.31;100.00;98747.36;1641694;87;21080;-73
2021/12/08 04:17:34;;;;;;;32.58;15.43;;;;;;;-1.31;100.00;98753.28;1648161;85;20969;-73
2021/12/08 04:20:05;;;;;;;35.50;14.33;;;;;;;-1.30;100.00;98750.33;1642648;86;21213;-73
2021/12/08 04:22:36;;;;;;;32.05;15.58;;;;;;;-1.30;100.00;98744.13;1625455;87;21024;-71
2021/12/08 04:25:10;;;;;;;33.40;16.30;;;;;;;-1.28;100.00;98750.87;1636093;86;21157;-71
2021/12/08 04:27:39;;;;;;;26.73;12.60;;;;;;;-1.27;100.00;98756.55;1643746;87;20974;-72
2021/12/08 04:30:10;;;;;;;30.88;15.30;;;;;;;-1.26;100.00;98763.55;1632358;87;20969;-71
2021/12/08 04:32:37;;;;;;;33.18;14.05;;;;;;;-1.26;100.00;98761.39;1641547;84;21071;-71
2021/12/08 04:35:04;;;;;;;30.25;14.80;;;;;;;-1.26;100.00;98766.25;1632809;87;21505;-70
2021/12/08 04:37:35;;;;;;;32.17;15.13;;;;;;;-1.24;100.00;98762.77;1648079;87;21924;-70
2021/12/08 04:40:26;;;;;;;29.00;13.48;;;;;;;-1.22;100.00;98764.66;1647771;86;21588;-70
2021/12/08 04:45:23;;;;;;;31.25;13.98;;;;;;;-1.22;100.00;98758.47;1630960;86;21080;-71
2021/12/08 04:48:05;;;;;;;27.48;12.75;;;;;;;-1.21;100.00;98762.25;1649910;85;21073;-71
2021/12/08 04:52:56;;;;;;;30.35;14.68;;;;;;;-1.18;100.00;98771.69;1654230;85;20941;-71
2021/12/08 05:08:54;;;;;;;25.10;11.75;;;;;;;-1.13;100.00;98764.43;1656047;85;21015;-70
2021/12/08 05:11:31;;;;;;;27.93;12.90;;;;;;;-1.11;100.00;98765.52;1630752;86;21551;-71
2021/12/08 05:14:03;;;;;;;21.73;11.22;;;;;;;-1.10;100.00;98766.61;1630438;86;21347;-71
2021/12/08 05:16:31;;;;;;;25.75;12.65;;;;;;;-1.08;100.00;98765.00;1636699;85;21370;-74
2021/12/08 05:18:59;;;;;;;17.20;9.35;;;;;;;-1.08;100.00;98765.00;1630717;86;21106;-75
2021/12/08 05:21:51;;;;;;;20.15;9.85;;;;;;;-1.09;100.00;98766.88;1631247;86;21243;-72
2021/12/08 05:24:24;;;;;;;19.05;10.25;;;;;;;-1.08;100.00;98760.42;1648020;86;21615;-71
2021/12/08 05:26:59;;;;;;;23.83;10.58;;;;;;;-1.05;100.00;98761.79;1644453;86;21052;-71
2021/12/08 05:29:34;;;;;;;28.20;11.10;;;;;;;-0.98;100.00;98768.30;1632930;86;21149;-71
2021/12/08 05:32:03;;;;;;;20.92;9.50;;;;;;;-0.98;100.00;98775.84;1625215;86;21017;-72
2021/12/08 05:34:29;;;;;;;21.37;9.50;;;;;;;-0.99;100.00;98775.58;1634887;86;21480;-72
2021/12/08 05:36:57;;;;;;;19.90;8.98;;;;;;;-0.97;100.00;98773.44;1666379;84;21529;-68
2021/12/08 05:39:25;;;;;;;16.25;9.00;;;;;;;-0.96;100.00;98777.75;1646511;85;21425;-69
2021/12/08 05:41:57;;;;;;;18.48;8.68;;;;;;;-0.94;100.00;98782.88;1645936;86;21179;-69
2021/12/08 05:44:23;;;;;;;21.77;10.13;;;;;;;-0.93;100.00;98780.46;1632419;86;21513;-68
2021/12/08 05:46:52;;;;;;;20.25;10.35;;;;;;;-0.93;100.00;98786.66;1636492;86;21562;-69
2021/12/08 05:49:19;;;;;;;18.80;9.48;;;;;;;-0.91;100.00;98781.83;1637513;86;21114;-69
2021/12/08 05:51:48;;;;;;;18.23;9.33;;;;;;;-0.89;100.00;98784.27;1627572;87;20978;-69
2021/12/08 05:54:20;;;;;;;20.48;9.30;;;;;;;-0.88;100.00;98777.27;1637490;86;21983;-69
2021/12/08 05:56:48;;;;;;;16.30;8.68;;;;;;;-0.85;100.00;98772.70;1641358;86;20987;-69
2021/12/08 05:59:15;;;;;;;16.95;8.85;;;;;;;-0.83;100.00;98774.60;1633382;86;21510;-68
2021/12/08 06:01:53;;;;;;;15.32;8.58;;;;;;;-0.80;100.00;98775.43;1638549;86;21543;-69
2021/12/08 06:04:20;;;;;;;16.07;8.05;;;;;;;-0.81;100.00;98772.46;1626175;86;21095;-69
2021/12/08 06:06:47;;;;;;;20.60;9.48;;;;;;;-0.79;100.00;98773.55;1664803;85;21271;-69
2021/12/08 06:09:17;;;;;;;19.10;9.78;;;;;;;-0.75;100.00;98775.46;1636063;86;21134;-68
2021/12/08 06:11:44;;;;;;;16.17;8.05;;;;;;;-0.73;100.00;98779.24;1639770;86;21041;-69
2021/12/08 06:14:11;;;;;;;13.62;7.97;;;;;;;-0.73;100.00;98777.36;1633694;86;21589;-68
2021/12/08 06:16:40;;;;;;;22.87;9.05;;;;;;;-0.72;100.00;98778.98;1642820;85;20971;-68
2021/12/08 06:19:08;;;;;;;21.65;9.13;;;;;;;-0.73;100.00;98774.67;1651526;85;21157;-69
2021/12/08 06:21:35;;;;;;;13.48;8.25;;;;;;;-0.73;100.00;98772.51;1628704;86;21070;-69
2021/12/08 06:24:05;;;;;;;15.13;8.28;;;;;;;-0.73;100.00;98777.36;1630655;86;21113;-68
2021/12/08 06:26:32;;;;;;;15.35;7.65;;;;;;;-0.72;100.00;98781.68;1636655;86;20965;-69
2021/12/08 06:28:59;;;;;;;16.05;7.92;;;;;;;-0.72;100.00;98784.38;1636774;86;21051;-69
2021/12/08 06:31:27;;;;;;;13.93;7.22;;;;;;;-0.71;100.00;98787.34;1639163;86;21168;-69
2021/12/08 06:33:54;;;;;;;17.15;7.50;;;;;;;-0.71;100.00;98781.95;1637015;86;21521;-69
2021/12/08 06:36:29;;;;;;;17.15;9.13;;;;;;;-0.70;100.00;98788.16;1636339;86;20968;-69
2021/12/08 06:38:56;;;;;;;19.57;9.05;;;;;;;-0.69;100.00;98790.59;1631226;86;21106;-70
2021/12/08 06:41:30;;;;;;;17.42;8.15;;;;;;;-0.68;100.00;98788.17;1633335;86;21094;-70
2021/12/08 06:44:04;;;;;;;16.02;7.72;;;;;;;-0.67;100.00;98773.63;1635641;86;21107;-70
2021/12/08 06:46:31;;;;;;;15.83;7.70;;;;;;;-0.64;100.00;98772.83;1643233;86;21143;-70
2021/12/08 06:48:59;;;;;;;18.15;8.30;;;;;;;-0.62;100.00;98768.80;1632216;86;21025;-69
2021/12/08 06:51:40;;;;;;;13.85;6.33;;;;;;;-0.62;100.00;98781.47;1642717;86;21091;-69
2021/12/08 06:54:12;;;;;;;13.03;6.92;;;;;;;-0.61;100.00;98779.05;1641190;86;20975;-70
2021/12/08 06:56:47;;;;;;;;;;;;;;;-0.63;100.00;98781.19;1643939;86;21707;-70
2021/12/08 06:59:18;;;;;;;18.48;8.60;;;;;;;-0.63;100.00;98781.19;1666889;84;20419;-70
2021/12/08 07:02:03;;;;;;;11.00;6.20;;;;;;;-0.66;100.00;98777.12;1637805;86;21569;-70
2021/12/08 07:07:28;;;;;;;14.33;7.33;;;;;;;-0.65;100.00;98778.75;1666521;85;21008;-69
2021/12/08 07:10:14;;;;;;;13.03;7.87;;;;;;;-0.65;100.00;98775.25;1640438;86;21176;-69
2021/12/08 07:12:47;;;;;;;14.78;8.13;;;;;;;-0.64;100.00;98781.72;1643245;86;21096;-69
2021/12/08 07:15:37;;;;;;;15.20;7.62;;;;;;;-0.62;100.00;98770.14;1638155;86;21010;-69
2021/12/08 07:18:15;;;;;;;16.77;8.03;;;;;;;-0.62;100.00;98769.33;1598259;86;21017;-69
2021/12/08 07:20:50;;;;;;;13.18;7.67;;;;;;;-0.63;100.00;98769.88;1641531;86;21085;-69
2021/12/08 07:23:22;;;;;;;13.62;7.20;;;;;;;-0.62;100.00;98766.64;1642902;86;21118;-68
2021/12/08 07:25:49;;;;;;;18.00;8.50;;;;;;;-0.59;100.00;98761.53;1655407;85;21040;-76
2021/12/08 07:28:17;;;;;;;19.62;9.00;;;;;;;-0.59;100.00;98762.88;1630007;86;21096;-69
2021/12/08 07:30:53;;;;;;;20.85;8.60;;;;;;;-0.58;100.00;98765.04;1631740;86;21501;-73
2021/12/08 07:33:20;;;;;;;18.92;8.35;;;;;;;-0.57;100.00;98772.02;1627577;86;21139;-83
2021/12/08 07:35:52;;;;;;;15.95;7.83;;;;;;;-0.59;100.00;98767.46;1631293;86;21511;-68
2021/12/08 07:38:21;;;;;;;17.17;8.65;;;;;;;-0.59;100.00;98768.81;1631459;88;20906;-67
2021/12/08 07:40:58;;;;;;;13.30;7.53;;;;;;;-0.61;100.00;98772.30;1631424;88;20922;-71
2021/12/08 07:43:25;;;;;;;15.60;7.42;;;;;;;-0.62;100.00;98767.98;1663349;84;21191;-67
2021/12/08 07:46:08;;;;;;;16.55;7.65;;;;;;;-0.63;100.00;98767.70;1644278;85;21030;-70
2021/12/08 07:48:40;;;;;;;17.12;8.55;;;;;;;-0.65;100.00;98764.47;1645607;85;21468;-69
2021/12/08 07:51:25;;;;;;;14.23;7.72;;;;;;;-0.68;100.00;98769.84;1655377;85;21024;-68
2021/12/08 07:53:52;;;;;;;15.03;7.70;;;;;;;-0.70;100.00;98760.67;1646173;86;21026;-68
2021/12/08 07:56:20;;;;;;;17.25;8.85;;;;;;;-0.67;100.00;98756.64;1660031;85;21086;-68
2021/12/08 07:58:52;;;;;;;15.20;8.20;;;;;;;-0.65;100.00;98761.77;1655731;85;21470;-68
2021/12/08 08:01:25;;;;;;;15.50;7.22;;;;;;;-0.65;100.00;98750.98;1657993;85;21159;-68
2021/12/08 08:03:52;;;;;;;14.28;6.90;;;;;;;-0.64;100.00;98753.95;1661939;85;21489;-68
2021/12/08 08:06:26;;;;;;;14.10;6.92;;;;;;;-0.65;100.00;98755.03;1659120;83;21120;-69
2021/12/08 08:08:53;;;;;;;16.48;8.15;;;;;;;-0.68;100.00;98750.97;1648839;85;21036;-70
2021/12/08 08:11:30;;;;;;;14.90;7.78;;;;;;;-0.67;100.00;98749.36;1636894;86;21020;-69
2021/12/08 08:13:57;;;;;;;14.20;7.20;;;;;;;-0.65;100.00;98741.55;1637510;86;21097;-71
2021/12/08 08:16:28;;;;;;;14.25;7.37;;;;;;;-0.65;100.00;98745.59;1644798;84;21675;-75
2021/12/08 08:19:03;;;;;;;11.75;6.25;;;;;;;-0.65;100.00;98745.59;1641501;86;21091;-69
2021/12/08 08:21:29;;;;;;;14.98;7.53;;;;;;;-0.63;100.00;98745.61;1653773;85;21017;-68
2021/12/08 08:23:57;;;;;;;14.45;7.17;;;;;;;-0.62;100.00;98739.14;1653023;84;21061;-69
2021/12/08 08:26:24;;;;;;;12.37;6.65;;;;;;;-0.64;100.00;98744.52;1660647;85;21102;-71
2021/12/08 08:28:52;;;;;;;14.83;7.42;;;;;;;-0.64;100.00;98743.17;1610414;86;21106;-72
2021/12/08 08:31:26;;;;;;;12.70;6.78;;;;;;;-0.63;100.00;98740.22;1633177;86;21043;-70
2021/12/08 08:33:53;;;;;;;14.05;6.20;;;;;;;-0.63;100.00;98739.41;1625592;86;21576;-75
2021/12/08 08:36:25;;;;;;;13.80;6.33;;;;;;;-0.62;100.00;98731.06;1639611;85;21139;-79
2021/12/08 08:38:56;;;;;;;12.90;5.75;;;;;;;-0.62;100.00;98732.41;1639485;86;21786;-71
2021/12/08 08:41:28;;;;;;;10.18;5.35;;;;;;;-0.64;100.00;98731.86;1642048;86;20928;-70
2021/12/08 08:43:57;;;;;;;10.55;5.37;;;;;;;-0.67;100.00;98733.73;1648448;86;21015;-72
2021/12/08 08:46:28;;;;;;;10.05;5.05;;;;;;;-0.68;100.00;98729.41;1637467;86;21620;-75
2021/12/08 08:49:06;;;;;;;10.67;5.23;;;;;;;-0.69;100.00;98743.42;1636941;86;20980;-77
2021/12/08 08:51:51;;;;;;;11.83;5.10;;;;;;;-0.69;100.00;98744.77;1642781;86;21176;-77
2021/12/08 08:54:22;;;;;;;9.05;5.08;;;;;;;-0.68;100.00;98749.09;1645041;85;20888;-85
2021/12/08 08:56:55;;;;;;;11.97;5.28;;;;;;;-0.69;100.00;98756.90;1657463;84;21187;-74
2021/12/08 08:59:30;;;;;;;8.63;4.72;;;;;;;-0.68;100.00;98753.13;1655260;85;20940;-76
2021/12/08 09:01:57;;;;;;;9.75;5.10;;;;;;;-0.63;100.00;98748.84;1657186;84;21037;-76
2021/12/08 09:04:31;;;;;;;10.45;5.42;;;;;;;-0.61;100.00;98740.77;1670269;85;20999;-76
2021/12/08 09:07:02;;;;;;;10.63;5.17;;;;;;;-0.58;100.00;98747.52;1655277;85;21075;-78
2021/12/08 09:09:33;;;;;;;8.78;4.95;;;;;;;-0.56;100.00;98734.02;1638072;85;21079;-73
2021/12/08 09:12:11;;;;;;;9.90;4.62;;;;;;;-0.56;100.00;98729.98;1645729;86;21004;-70
2021/12/08 09:14:46;;;;;;;11.65;5.12;;;;;;;-0.56;100.00;98729.16;1632798;86;21561;-68
2021/12/08 09:17:27;;;;;;;8.65;4.40;;;;;;;-0.55;100.00;98730.79;1654673;85;21185;-72
2021/12/08 09:20:02;;;;;;;8.28;4.00;;;;;;;-0.53;100.00;98724.06;1655150;85;21587;-70
2021/12/08 09:22:54;;;;;;;11.40;4.72;;;;;;;-0.51;100.00;98726.48;1658730;85;21614;-70
2021/12/08 09:25:20;;;;;;;9.65;4.60;;;;;;;-0.50;100.00;98724.88;1644838;86;20928;-74
2021/12/08 09:27:52;;;;;;;11.60;5.13;;;;;;;-0.47;100.00;98733.79;1632067;86;21554;-71
2021/12/08 09:30:24;;;;;;;9.10;4.67;;;;;;;-0.45;100.00;98737.58;1643880;86;27565;-71
2021/12/08 09:32:54;;;;;;;;;;;;;;;-0.43;100.00;98730.03;1633213;86;21085;-70
2021/12/08 09:35:26;;;;;;;8.53;4.15;;;;;;;-0.45;100.00;98727.59;1639987;86;20437;-74
2021/12/08 09:38:01;;;;;;;8.10;4.53;;;;;;;-0.46;100.00;98725.16;1614877;86;21135;-79
2021/12/08 09:40:37;;;;;;;9.33;4.40;;;;;;;-0.47;100.00;98727.59;1639177;85;21443;-69
2021/12/08 09:43:15;;;;;;;8.03;4.25;;;;;;;-0.47;100.00;98727.59;1632727;86;21121;-69
2021/12/08 09:45:59;;;;;;;7.80;4.03;;;;;;;-0.48;100.00;98736.75;1653917;85;21185;-69
2021/12/08 09:48:29;;;;;;;7.00;3.85;;;;;;;-0.47;100.00;98735.67;1669456;85;21065;-68
2021/12/08 09:50:56;;;;;;;7.55;4.33;;;;;;;-0.48;100.00;98742.95;1671515;85;21072;-69
2021/12/08 09:53:23;;;;;;;12.60;6.62;;;;;;;-0.48;100.00;98738.09;1642773;86;21506;-68
2021/12/08 09:55:50;;;;;;;7.92;4.03;;;;;;;-0.47;100.00;98731.62;1634422;86;21091;-68
2021/12/08 09:58:17;;;;;;;7.12;3.47;;;;;;;-0.45;100.00;98724.91;1638579;87;21034;-81
2021/12/08 10:00:47;;;;;;;9.15;4.55;;;;;;;-0.45;100.00;98720.05;1646106;85;21029;-70
2021/12/08 10:03:15;;;;;;;9.65;4.97;;;;;;;-0.44;100.00;98721.67;1641084;85;21021;-75
2021/12/08 10:05:42;;;;;;;12.53;5.75;;;;;;;-0.42;100.00;98722.22;1635528;87;20958;-69
2021/12/08 10:08:10;;;;;;;17.17;6.20;;;;;;;-0.44;100.00;98725.17;1641146;86;21103;-70
2021/12/08 10:10:38;;;;;;;12.58;5.95;;;;;;;-0.44;100.00;98721.13;1646920;86;20990;-77
2021/12/08 10:13:06;;;;;;;11.63;4.83;;;;;;;-0.43;100.00;98714.66;1652655;85;21061;-81
2021/12/08 10:15:33;;;;;;;9.48;4.30;;;;;;;-0.44;100.00;98708.19;1673993;85;20966;-71
2021/12/08 10:18:01;;;;;;;9.68;4.83;;;;;;;-0.46;100.00;98711.14;1664594;84;21112;-72
2021/12/08 10:20:34;;;;;;;8.00;4.28;;;;;;;-0.47;100.00;98706.02;1674537;85;21985;-71
2021/12/08 10:23:28;;;;;;;9.80;4.72;;;;;;;-0.47;100.00;98697.92;1675467;85;21009;-70
2021/12/08 10:26:00;;;;;;;10.28;4.15;;;;;;;-0.45;100.00;98699.28;1671780;85;21069;-73
2021/12/08 10:28:39;;;;;;;8.45;4.35;;;;;;;-0.45;100.00;98687.69;1663036;85;21120;-75
2021/12/08 10:31:27;;;;;;;7.42;4.00;;;;;;;-0.47;100.00;98688.49;1664608;85;21465;-77
2021/12/08 10:34:08;;;;;;;7.47;3.45;;;;;;;-0.47;100.00;98683.09;1642816;85;21018;-77
2021/12/08 10:36:46;;;;;;;11.25;4.67;;;;;;;-0.49;100.00;98679.31;1673861;85;21846;-77
2021/12/08 10:39:45;;;;;;;14.95;6.20;;;;;;;-0.49;100.00;98675.81;1648549;85;20928;-76
2021/12/08 10:42:29;;;;;;;15.40;6.92;;;;;;;-0.48;100.00;98678.78;1652844;85;21512;-77
2021/12/08 10:45:10;;;;;;;18.87;7.17;;;;;;;-0.47;100.00;98669.08;1670069;85;21106;-73
2021/12/08 10:47:53;;;;;;;12.37;5.78;;;;;;;-0.46;100.00;98667.19;1658453;85;21626;-73
2021/12/08 10:56:14;;;;;;;8.93;4.87;;;;;;;-0.48;100.00;98659.37;1654095;85;21016;-73
2021/12/08 10:58:47;;;;;;;10.58;4.97;;;;;;;-0.48;100.00;98663.95;1655839;85;20912;-74
2021/12/08 11:01:20;;;;;;;8.15;4.50;;;;;;;-0.47;100.00;98658.83;1662945;85;21761;-72
2021/12/08 11:04:00;;;;;;;9.88;5.53;;;;;;;-0.50;100.00;98647.23;1651405;85;21072;-71
2021/12/08 11:06:34;;;;;;;8.63;5.70;;;;;;;-0.50;100.00;98639.95;1648601;85;21091;-71
2021/12/08 11:09:09;;;;;;;9.53;5.22;;;;;;;-0.52;100.00;98635.36;1650736;85;21067;-71
2021/12/08 11:11:41;;;;;;;9.10;5.45;;;;;;;-0.53;100.00;98627.00;1590117;87;21007;-71
2021/12/08 11:14:06;;;;;;;10.38;5.70;;;;;;;-0.57;100.00;98631.30;1663744;85;20970;-71
2021/12/08 11:16:39;;;;;;;8.93;6.00;;;;;;;-0.57;100.00;98627.26;1655580;85;21000;-71
2021/12/08 11:19:23;;;;;;;10.68;6.08;;;;;;;-0.59;100.00;98620.55;1650767;85;21148;-71
2021/12/08 11:21:56;;;;;;;11.45;6.40;;;;;;;-0.58;100.00;98624.32;1658407;85;21013;-72
2021/12/08 11:24:34;;;;;;;11.80;6.83;;;;;;;-0.60;100.00;98635.91;1651382;84;21092;-72
2021/12/08 11:27:05;;;;;;;13.22;6.65;;;;;;;-0.63;100.00;98637.78;1639237;85;21835;-70
2021/12/08 11:29:36;;;;;;;10.03;6.53;;;;;;;-0.63;100.00;98631.05;1642803;85;20980;-70
2021/12/08 11:32:07;;;;;;;8.03;5.33;;;;;;;-0.63;100.00;98627.00;1652822;84;21077;-70
2021/12/08 11:34:44;;;;;;;8.10;5.22;;;;;;;-0.61;100.00;98632.13;1660528;84;21115;-72
2021/12/08 11:37:22;;;;;;;10.50;5.45;;;;;;;-0.62;100.00;98625.92;1653094;85;21460;-72
2021/12/08 11:39:55;;;;;;;8.08;4.97;;;;;;;-0.63;100.00;98621.61;1652025;85;21001;-71
2021/12/08 11:42:35;;;;;;;8.93;5.12;;;;;;;-0.62;100.00;98619.73;1656883;85;21617;-71
2021/12/08 11:45:11;;;;;;;10.38;4.95;;;;;;;-0.64;100.00;98617.83;1659684;85;21031;-72
2021/12/08 11:47:43;;;;;;;8.50;4.05;;;;;;;-0.67;100.00;98625.91;1654952;85;22345;-71
2021/12/08 11:50:22;;;;;;;6.92;3.77;;;;;;;-0.71;100.00;98617.55;1651284;85;21021;-71
2021/12/08 11:52:54;;;;;;;9.60;5.30;;;;;;;-0.73;100.00;98600.02;1658232;84;21950;-70
2021/12/08 11:55:25;;;;;;;7.55;3.75;;;;;;;-0.72;100.00;98611.07;1673347;85;21704;-71
2021/12/08 11:57:55;;;;;;;10.45;4.97;;;;;;;-0.70;100.00;98608.38;1668201;85;21077;-73
2021/12/08 12:00:30;;;;;;;7.78;4.30;;;;;;;-0.70;100.00;98617.81;1662203;85;21080;-72
2021/12/08 12:03:09;;;;;;;11.43;4.47;;;;;;;-0.68;100.00;98620.25;1655948;85;21085;-69
2021/12/08 12:05:48;;;;;;;6.28;3.20;;;;;;;-0.70;100.00;98621.05;1668461;85;21611;-71
2021/12/08 12:08:23;;;;;;;6.25;3.60;;;;;;;-0.72;100.00;98615.92;1644901;85;21171;-70
2021/12/08 12:11:01;;;;;;;6.85;3.58;;;;;;;-0.73;100.00;98626.43;1659969;85;21067;-71
2021/12/08 12:13:29;;;;;;;8.20;4.45;;;;;;;-0.75;100.00;98616.45;1648324;86;21060;-70
2021/12/08 12:15:59;;;;;;;10.40;4.80;;;;;;;-0.76;100.00;98624.27;1644804;85;21500;-70
2021/12/08 12:18:36;;;;;;;7.53;4.50;;;;;;;-0.76;100.00;98628.84;1641825;86;27320;-71
2021/12/08 12:21:43;;;;;;;10.93;5.10;;;;;;;-0.74;100.00;98632.89;1632146;86;21198;-72
2021/12/08 12:24:35;;;;;;;8.28;4.53;;;;;;;-0.75;100.00;98635.85;1620497;87;21543;-72